createdAt,value
2023-05-12T00:01:39.911Z,3.47
2023-05-12T00:06:38.617Z,2.80
2023-05-12T00:11:43.697Z,3.05
2023-05-12T00:16:44.013Z,3.72
2023-05-12T00:21:48.326Z,3.38
2023-05-12T00:26:47.093Z,4.22
2023-05-12T00:31:48.221Z,3.70
2023-05-12T00:36:45.530Z,3.35
2023-05-12T00:41:45.819Z,3.30
2023-05-12T00:46:47.913Z,3.00
2023-05-12T00:51:49.115Z,3.17
2023-05-12T00:56:51.745Z,3.38
2023-05-12T01:01:52.217Z,3.50
2023-05-12T01:06:56.620Z,3.58
2023-05-12T01:11:55.623Z,3.53
2023-05-12T01:16:54.061Z,3.53
2023-05-12T01:21:54.957Z,3.50
2023-05-12T01:26:57.031Z,3.40
2023-05-12T01:31:56.099Z,3.28
2023-05-12T01:36:53.252Z,3.30
2023-05-12T01:41:54.204Z,3.53
2023-05-12T01:46:54.659Z,3.75
2023-05-12T01:52:05.098Z,3.50
2023-05-12T01:57:35.568Z,3.78
2023-05-12T02:02:34.813Z,3.30
2023-05-12T02:07:38.178Z,3.60
2023-05-12T02:12:45.547Z,3.95
2023-05-12T02:17:47.757Z,3.92
2023-05-12T02:22:48.917Z,4.18
2023-05-12T02:27:51.374Z,4.93
2023-05-12T02:32:51.630Z,3.75
2023-05-12T02:37:53.980Z,4.55
2023-05-12T02:42:54.425Z,4.25
2023-05-12T02:47:55.800Z,4.22
2023-05-12T02:53:04.317Z,3.17
2023-05-12T02:58:05.423Z,3.97
2023-05-12T03:03:06.019Z,4.07
2023-05-12T03:08:08.780Z,4.05
2023-05-12T03:13:08.676Z,4.72
2023-05-12T03:18:21.157Z,4.68
2023-05-12T03:23:24.735Z,4.72
2023-05-12T03:28:24.982Z,4.20
2023-05-12T03:33:28.251Z,4.97
2023-05-12T03:38:28.315Z,5.03
2023-05-12T03:43:27.102Z,4.57
2023-05-12T03:48:25.406Z,4.90
2023-05-12T03:53:23.570Z,4.97
2023-05-12T03:58:24.792Z,4.60
2023-05-12T04:03:23.487Z,5.13
2023-05-12T04:08:26.047Z,5.07
2023-05-12T04:13:28.076Z,5.22
2023-05-12T04:18:38.949Z,5.28
2023-05-12T04:23:38.544Z,5.05
2023-05-12T04:28:41.467Z,4.97
2023-05-12T04:33:43.512Z,4.70
2023-05-12T04:38:42.792Z,4.95
2023-05-12T04:49:00.935Z,5.40
2023-05-12T04:54:14.141Z,6.00
2023-05-12T04:59:45.027Z,5.55
2023-05-12T05:04:48.244Z,5.10
2023-05-12T05:10:03.332Z,5.80
2023-05-12T05:15:06.022Z,6.00
2023-05-12T05:20:11.773Z,6.63
2023-05-12T05:25:13.819Z,6.78
2023-05-12T05:30:20.157Z,6.88
2023-05-12T05:35:33.202Z,6.40
2023-05-12T05:40:53.752Z,6.70
2023-05-12T05:46:00.606Z,7.50
2023-05-12T05:51:11.297Z,6.20
2023-05-12T05:56:16.890Z,7.57
2023-05-12T06:01:23.201Z,7.75
2023-05-12T06:06:26.056Z,7.27
2023-05-12T06:11:29.258Z,8.48
2023-05-12T06:16:30.276Z,6.90
2023-05-12T06:21:29.127Z,8.02
2023-05-12T06:26:31.450Z,7.40
2023-05-12T06:31:41.926Z,7.22
2023-05-12T06:36:55.211Z,6.90
2023-05-12T06:42:04.322Z,7.18
2023-05-12T06:47:16.188Z,6.80
2023-05-12T06:52:27.305Z,5.78
2023-05-12T07:03:21.113Z,5.40
2023-05-12T07:08:31.843Z,5.28
2023-05-12T07:19:27.690Z,4.68
2023-05-12T07:29:41.303Z,3.80
2023-05-12T07:34:50.568Z,3.70
2023-05-12T07:39:55.120Z,3.00
2023-05-12T07:44:59.861Z,4.03
2023-05-12T07:50:08.446Z,3.40
2023-05-12T07:55:20.667Z,3.42
2023-05-12T08:00:31.706Z,3.25
2023-05-12T08:11:55.836Z,2.67
2023-05-12T08:23:50.654Z,2.20
2023-05-12T08:29:01.872Z,2.75
2023-05-12T08:34:10.400Z,2.50
2023-05-12T08:45:12.362Z,2.53
2023-05-12T08:50:42.246Z,2.58
2023-05-12T08:56:01.278Z,2.08
2023-05-12T09:01:10.385Z,2.50
2023-05-12T09:06:08.743Z,2.20
2023-05-12T09:11:19.621Z,2.20
2023-05-12T09:16:33.778Z,2.38
2023-05-12T09:21:32.792Z,2.45
2023-05-12T09:26:31.572Z,2.60
2023-05-12T09:31:33.495Z,2.90
2023-05-12T09:36:43.300Z,2.85
2023-05-12T09:41:57.508Z,2.75
2023-05-12T09:47:06.356Z,2.80
2023-05-12T09:52:16.495Z,3.03
2023-05-12T09:57:57.011Z,5.00
2023-05-12T10:03:02.754Z,2.75
2023-05-12T10:08:03.371Z,2.58
2023-05-12T10:13:00.845Z,2.30
2023-05-12T10:18:05.196Z,2.60
2023-05-12T10:23:14.173Z,2.05
2023-05-12T10:28:16.821Z,2.17
2023-05-12T10:33:24.472Z,1.85
2023-05-12T10:38:26.684Z,1.90
2023-05-12T10:43:42.285Z,2.33
2023-05-12T10:49:14.561Z,2.00
2023-05-12T10:54:37.093Z,1.80
2023-05-12T10:59:36.516Z,1.92
2023-05-12T11:10:24.256Z,2.40
2023-05-12T11:15:50.136Z,3.00
2023-05-12T11:20:48.879Z,1.80
2023-05-12T11:25:47.130Z,2.40
2023-05-12T11:31:16.310Z,2.33
2023-05-12T11:36:21.884Z,1.60
2023-05-12T11:41:28.523Z,1.73
2023-05-12T11:46:30.375Z,1.70
2023-05-12T11:51:31.430Z,2.47
2023-05-12T11:56:32.750Z,2.35
2023-05-12T12:01:33.846Z,1.65
2023-05-12T12:06:43.634Z,2.13
2023-05-12T12:11:43.235Z,1.70
2023-05-12T12:16:43.447Z,1.73
2023-05-12T12:21:45.262Z,2.10
2023-05-12T12:26:49.756Z,1.95
2023-05-12T12:31:50.123Z,1.83
2023-05-12T12:36:51.481Z,1.42
2023-05-12T12:41:50.462Z,1.65
2023-05-12T12:46:52.014Z,1.35
2023-05-12T12:51:55.631Z,1.77
2023-05-12T13:01:57.260Z,1.95
2023-05-12T13:06:56.067Z,1.85
2023-05-12T13:11:54.783Z,2.50
2023-05-12T13:16:53.317Z,2.45
2023-05-12T13:27:35.298Z,2.00
2023-05-12T13:33:06.446Z,2.38
2023-05-12T13:38:05.181Z,1.92
2023-05-12T13:43:03.532Z,1.73
2023-05-12T13:48:14.624Z,1.67
2023-05-12T13:53:25.145Z,1.67
2023-05-12T13:58:24.456Z,1.40
2023-05-12T14:03:21.794Z,1.33
2023-05-12T14:08:18.963Z,1.60
2023-05-12T14:13:18.934Z,2.00
2023-05-12T14:18:17.916Z,2.08
2023-05-12T14:23:16.667Z,5.55
2023-05-12T14:28:15.609Z,3.92
2023-05-12T14:33:15.341Z,2.03
2023-05-12T14:38:15.416Z,1.83
2023-05-12T14:43:17.301Z,3.28
2023-05-12T14:48:15.730Z,3.72
2023-05-12T14:53:13.727Z,5.18
2023-05-12T14:58:20.669Z,3.95
2023-05-12T15:03:20.850Z,2.70
2023-05-12T15:08:18.718Z,1.88
2023-05-12T15:13:20.438Z,2.00
2023-05-12T15:18:19.746Z,2.20
2023-05-12T15:23:19.440Z,2.72
2023-05-12T15:28:20.413Z,3.00
2023-05-12T15:33:20.558Z,3.13
2023-05-12T15:38:19.553Z,3.75
2023-05-12T15:43:28.891Z,5.25
2023-05-12T15:48:26.700Z,3.78
2023-05-12T15:53:27.151Z,1.80
2023-05-12T15:58:25.738Z,2.22
2023-05-12T16:03:24.195Z,6.05
2023-05-12T16:08:24.151Z,4.38
2023-05-12T16:13:21.506Z,3.70
2023-05-12T16:18:18.755Z,2.72
2023-05-12T16:23:19.966Z,2.20
2023-05-12T16:28:18.190Z,1.48
2023-05-12T16:33:19.516Z,1.80
2023-05-12T16:38:18.126Z,2.15
2023-05-12T16:43:19.182Z,8.35
2023-05-12T16:48:31.193Z,7.28
2023-05-12T16:53:33.122Z,3.90
2023-05-12T16:58:35.783Z,4.53
2023-05-12T17:03:35.366Z,3.70
2023-05-12T17:08:37.548Z,3.03
2023-05-12T17:13:43.706Z,1.92
2023-05-12T17:23:42.148Z,2.53
2023-05-12T17:28:48.552Z,3.63
2023-05-12T17:33:46.614Z,5.28
2023-05-12T17:38:44.937Z,5.97
2023-05-12T17:43:43.115Z,5.03
2023-05-12T17:48:42.613Z,6.60
2023-05-12T17:53:42.598Z,5.88
2023-05-12T17:58:41.706Z,7.15
2023-05-12T18:03:44.336Z,3.55
2023-05-12T18:08:41.562Z,6.20
2023-05-12T18:13:43.093Z,5.88
2023-05-12T18:18:42.089Z,4.75
2023-05-12T18:23:43.674Z,5.50
2023-05-12T18:28:42.465Z,5.18
2023-05-12T18:33:44.460Z,6.65
2023-05-12T18:38:45.295Z,4.60
2023-05-12T18:43:47.314Z,2.70
2023-05-12T18:48:48.531Z,2.25
2023-05-12T18:54:26.720Z,3.83
2023-05-12T19:00:11.723Z,3.80
2023-05-12T19:05:21.860Z,2.72
2023-05-12T19:10:40.299Z,1.90
2023-05-12T19:15:47.268Z,2.33
2023-05-12T19:21:00.281Z,2.45
2023-05-12T19:26:17.029Z,2.80
2023-05-12T19:31:16.148Z,2.45
2023-05-12T19:36:21.479Z,2.20
2023-05-12T19:41:29.413Z,2.10
2023-05-12T19:46:28.893Z,2.10
2023-05-12T19:51:32.173Z,3.05
2023-05-12T19:56:32.860Z,1.92
2023-05-12T20:01:33.406Z,2.30
2023-05-12T20:06:34.073Z,2.05
2023-05-12T20:11:35.706Z,1.83
2023-05-12T20:22:31.936Z,2.08
2023-05-12T20:27:32.817Z,2.20
2023-05-12T20:32:33.239Z,2.20
2023-05-12T20:37:38.123Z,2.00
2023-05-12T20:42:36.656Z,2.08
2023-05-12T20:47:35.395Z,1.92
2023-05-12T20:52:39.637Z,2.05
2023-05-12T21:02:41.594Z,1.70
2023-05-12T21:07:45.187Z,1.85
2023-05-12T21:12:44.211Z,1.73
2023-05-12T21:23:41.093Z,1.52
2023-05-12T21:28:42.456Z,1.70
2023-05-12T21:33:46.945Z,2.10
2023-05-12T21:38:46.025Z,1.85
2023-05-12T21:43:44.544Z,1.88
2023-05-12T21:48:41.980Z,1.85
2023-05-12T21:53:45.712Z,1.88
2023-05-12T21:58:44.406Z,1.70
2023-05-12T22:03:46.238Z,1.58
2023-05-12T22:08:47.294Z,1.65
2023-05-12T22:13:54.063Z,1.25
2023-05-12T22:18:52.998Z,1.33
2023-05-12T22:23:52.991Z,1.48
2023-05-12T22:28:57.134Z,1.80
2023-05-12T22:39:00.371Z,1.80
2023-05-12T22:44:03.061Z,1.52
2023-05-12T22:49:01.435Z,2.03
2023-05-12T22:54:02.208Z,1.67
2023-05-12T22:59:05.424Z,1.70
2023-05-12T23:04:04.552Z,2.03
2023-05-12T23:09:02.263Z,1.92
2023-05-12T23:14:01.731Z,1.95
2023-05-12T23:19:04.049Z,1.85
2023-05-12T23:24:07.624Z,2.03
2023-05-12T23:29:08.033Z,1.85
2023-05-12T23:34:07.268Z,1.92
2023-05-12T23:39:34.610Z,1.83
2023-05-12T23:44:35.203Z,2.10
2023-05-12T23:49:34.876Z,2.15
2023-05-12T23:54:32.314Z,2.00
2023-05-12T23:59:31.724Z,2.60
